sensor_id;sensor_type;location;lat;lon;timestamp;P1;P2;P0
69350;PMS7003;57106;51.446;-2.606;2024-02-28T00:01:32;9;9;
69350;PMS7003;57106;51.446;-2.606;2024-02-28T00:03:58;8;7;
69350;PMS7003;57106;51.446;-2.606;2024-02-28T00:06:23;11;8;
69350;PMS7003;57106;51.446;-2.606;2024-02-28T00:08:49;11;8;
69350;PMS7003;57106;51.446;-2.606;2024-02-28T00:11:16;12;11;
69350;PMS7003;57106;51.446;-2.606;2024-02-28T00:13:40;9;9;
69350;PMS7003;57106;51.446;-2.606;2024-02-28T00:16:05;67;60;
69350;PMS7003;57106;51.446;-2.606;2024-02-28T00:18:36;70;69;
69350;PMS7003;57106;51.446;-2.606;2024-02-28T00:20:57;21;21;
69350;PMS7003;57106;51.446;-2.606;2024-02-28T00:23:22;16;14;
69350;PMS7003;57106;51.446;-2.606;2024-02-28T00:25:47;23;19;
69350;PMS7003;57106;51.446;-2.606;2024-02-28T00:28:13;17;14;
69350;PMS7003;57106;51.446;-2.606;2024-02-28T00:30:38;14;14;
69350;PMS7003;57106;51.446;-2.606;2024-02-28T00:33:04;19;18;
69350;PMS7003;57106;51.446;-2.606;2024-02-28T00:35:31;42;38;
69350;PMS7003;57106;51.446;-2.606;2024-02-28T00:37:54;42;41;
69350;PMS7003;57106;51.446;-2.606;2024-02-28T00:40:21;16;15;
69350;PMS7003;57106;51.446;-2.606;2024-02-28T00:42:45;53;49;
69350;PMS7003;57106;51.446;-2.606;2024-02-28T00:45:10;139;129;
69350;PMS7003;57106;51.446;-2.606;2024-02-28T00:47:36;66;63;
69350;PMS7003;57106;51.446;-2.606;2024-02-28T00:50:01;15;15;
69350;PMS7003;57106;51.446;-2.606;2024-02-28T01:14:16;7;7;
69350;PMS7003;57106;51.446;-2.606;2024-02-28T01:21:39;16;14;
69350;PMS7003;57106;51.446;-2.606;2024-02-28T01:23:58;12;12;
69350;PMS7003;57106;51.446;-2.606;2024-02-28T01:26:23;13;13;
69350;PMS7003;57106;51.446;-2.606;2024-02-28T01:28:49;20;19;
69350;PMS7003;57106;51.446;-2.606;2024-02-28T01:31:15;9;9;
69350;PMS7003;57106;51.446;-2.606;2024-02-28T01:33:40;13;12;
69350;PMS7003;57106;51.446;-2.606;2024-02-28T01:36:06;11;10;
69350;PMS7003;57106;51.446;-2.606;2024-02-28T01:38:31;10;10;
69350;PMS7003;57106;51.446;-2.606;2024-02-28T01:41:06;13;13;
69350;PMS7003;57106;51.446;-2.606;2024-02-28T01:43:22;13;12;
69350;PMS7003;57106;51.446;-2.606;2024-02-28T01:45:48;12;9;
69350;PMS7003;57106;51.446;-2.606;2024-02-28T01:48:13;11;8;
69350;PMS7003;57106;51.446;-2.606;2024-02-28T01:50:41;10;7;
69350;PMS7003;57106;51.446;-2.606;2024-02-28T01:53:04;6;6;
69350;PMS7003;57106;51.446;-2.606;2024-02-28T01:55:30;5;5;
69350;PMS7003;57106;51.446;-2.606;2024-02-28T01:58:06;9;9;
69350;PMS7003;57106;51.446;-2.606;2024-02-28T02:00:21;11;8;
69350;PMS7003;57106;51.446;-2.606;2024-02-28T02:02:46;8;7;
69350;PMS7003;57106;51.446;-2.606;2024-02-28T02:05:11;5;5;
69350;PMS7003;57106;51.446;-2.606;2024-02-28T02:07:37;6;6;
69350;PMS7003;57106;51.446;-2.606;2024-02-28T02:10:08;7;5;
69350;PMS7003;57106;51.446;-2.606;2024-02-28T02:12:28;13;9;
69350;PMS7003;57106;51.446;-2.606;2024-02-28T02:14:54;9;9;
69350;PMS7003;57106;51.446;-2.606;2024-02-28T02:17:19;9;6;
69350;PMS7003;57106;51.446;-2.606;2024-02-28T02:19:45;11;8;
69350;PMS7003;57106;51.446;-2.606;2024-02-28T02:22:10;10;10;
69350;PMS7003;57106;51.446;-2.606;2024-02-28T02:24:35;9;6;
69350;PMS7003;57106;51.446;-2.606;2024-02-28T02:27:01;10;9;
69350;PMS7003;57106;51.446;-2.606;2024-02-28T02:29:26;10;9;
69350;PMS7003;57106;51.446;-2.606;2024-02-28T02:31:52;12;10;
69350;PMS7003;57106;51.446;-2.606;2024-02-28T02:34:18;10;7;
69350;PMS7003;57106;51.446;-2.606;2024-02-28T02:36:43;12;11;
69350;PMS7003;57106;51.446;-2.606;2024-02-28T02:39:09;8;8;
69350;PMS7003;57106;51.446;-2.606;2024-02-28T02:41:33;10;10;
69350;PMS7003;57106;51.446;-2.606;2024-02-28T02:43:59;10;8;
69350;PMS7003;57106;51.446;-2.606;2024-02-28T02:46:29;12;9;
69350;PMS7003;57106;51.446;-2.606;2024-02-28T02:48:49;7;7;
69350;PMS7003;57106;51.446;-2.606;2024-02-28T02:51:16;12;11;
69350;PMS7003;57106;51.446;-2.606;2024-02-28T02:53:40;7;7;
69350;PMS7003;57106;51.446;-2.606;2024-02-28T02:56:06;6;6;
69350;PMS7003;57106;51.446;-2.606;2024-02-28T02:58:31;7;7;
69350;PMS7003;57106;51.446;-2.606;2024-02-28T03:00:57;8;7;
69350;PMS7003;57106;51.446;-2.606;2024-02-28T03:03:23;10;8;
69350;PMS7003;57106;51.446;-2.606;2024-02-28T03:05:49;8;6;
69350;PMS7003;57106;51.446;-2.606;2024-02-28T03:08:13;9;8;
69350;PMS7003;57106;51.446;-2.606;2024-02-28T03:10:39;11;7;
69350;PMS7003;57106;51.446;-2.606;2024-02-28T03:17:56;8;8;
69350;PMS7003;57106;51.446;-2.606;2024-02-28T03:22:51;9;6;
69350;PMS7003;57106;51.446;-2.606;2024-02-28T03:25:12;6;5;
69350;PMS7003;57106;51.446;-2.606;2024-02-28T03:27:37;11;9;
69350;PMS7003;57106;51.446;-2.606;2024-02-28T03:30:03;9;8;
69350;PMS7003;57106;51.446;-2.606;2024-02-28T03:32:28;9;7;
69350;PMS7003;57106;51.446;-2.606;2024-02-28T03:34:53;7;7;
69350;PMS7003;57106;51.446;-2.606;2024-02-28T03:37:19;8;6;
69350;PMS7003;57106;51.446;-2.606;2024-02-28T03:39:44;5;4;
69350;PMS7003;57106;51.446;-2.606;2024-02-28T03:42:10;7;6;
69350;PMS7003;57106;51.446;-2.606;2024-02-28T03:44:35;8;7;
69350;PMS7003;57106;51.446;-2.606;2024-02-28T03:47:01;7;7;
69350;PMS7003;57106;51.446;-2.606;2024-02-28T03:49:26;6;6;
69350;PMS7003;57106;51.446;-2.606;2024-02-28T03:51:51;6;6;
69350;PMS7003;57106;51.446;-2.606;2024-02-28T03:54:17;9;6;
69350;PMS7003;57106;51.446;-2.606;2024-02-28T03:56:43;6;5;
69350;PMS7003;57106;51.446;-2.606;2024-02-28T03:59:09;5;5;
69350;PMS7003;57106;51.446;-2.606;2024-02-28T04:01:34;7;7;
69350;PMS7003;57106;51.446;-2.606;2024-02-28T04:03:59;5;5;
69350;PMS7003;57106;51.446;-2.606;2024-02-28T04:06:26;5;5;
69350;PMS7003;57106;51.446;-2.606;2024-02-28T04:08:51;6;5;
69350;PMS7003;57106;51.446;-2.606;2024-02-28T04:11:16;6;6;
69350;PMS7003;57106;51.446;-2.606;2024-02-28T04:13:42;6;6;
69350;PMS7003;57106;51.446;-2.606;2024-02-28T04:16:07;7;6;
69350;PMS7003;57106;51.446;-2.606;2024-02-28T04:20:59;6;5;
69350;PMS7003;57106;51.446;-2.606;2024-02-28T04:23:24;5;5;
69350;PMS7003;57106;51.446;-2.606;2024-02-28T04:28:16;7;6;
69350;PMS7003;57106;51.446;-2.606;2024-02-28T04:30:41;8;4;
69350;PMS7003;57106;51.446;-2.606;2024-02-28T04:33:22;6;6;
69350;PMS7003;57106;51.446;-2.606;2024-02-28T04:35:37;5;4;
69350;PMS7003;57106;51.446;-2.606;2024-02-28T04:38:03;4;4;
69350;PMS7003;57106;51.446;-2.606;2024-02-28T04:40:24;5;5;
69350;PMS7003;57106;51.446;-2.606;2024-02-28T04:42:50;5;5;
69350;PMS7003;57106;51.446;-2.606;2024-02-28T04:45:15;6;5;
69350;PMS7003;57106;51.446;-2.606;2024-02-28T04:47:40;9;8;
69350;PMS7003;57106;51.446;-2.606;2024-02-28T04:50:06;5;5;
69350;PMS7003;57106;51.446;-2.606;2024-02-28T04:52:31;10;6;
69350;PMS7003;57106;51.446;-2.606;2024-02-28T04:54:57;5;4;
69350;PMS7003;57106;51.446;-2.606;2024-02-28T04:59:48;6;5;
69350;PMS7003;57106;51.446;-2.606;2024-02-28T05:02:13;5;4;
69350;PMS7003;57106;51.446;-2.606;2024-02-28T05:04:39;6;5;
69350;PMS7003;57106;51.446;-2.606;2024-02-28T05:07:07;5;4;
69350;PMS7003;57106;51.446;-2.606;2024-02-28T05:09:30;6;5;
69350;PMS7003;57106;51.446;-2.606;2024-02-28T05:12:06;6;5;
69350;PMS7003;57106;51.446;-2.606;2024-02-28T05:14:21;5;5;
69350;PMS7003;57106;51.446;-2.606;2024-02-28T05:16:47;7;5;
69350;PMS7003;57106;51.446;-2.606;2024-02-28T05:19:20;5;4;
69350;PMS7003;57106;51.446;-2.606;2024-02-28T05:21:40;5;3;
69350;PMS7003;57106;51.446;-2.606;2024-02-28T05:24:04;6;4;
69350;PMS7003;57106;51.446;-2.606;2024-02-28T05:26:29;5;4;
69350;PMS7003;57106;51.446;-2.606;2024-02-28T05:28:55;6;5;
69350;PMS7003;57106;51.446;-2.606;2024-02-28T05:31:22;4;4;
69350;PMS7003;57106;51.446;-2.606;2024-02-28T05:33:46;4;4;
69350;PMS7003;57106;51.446;-2.606;2024-02-28T05:36:13;3;3;
69350;PMS7003;57106;51.446;-2.606;2024-02-28T05:38:38;7;4;
69350;PMS7003;57106;51.446;-2.606;2024-02-28T05:41:03;5;5;
69350;PMS7003;57106;51.446;-2.606;2024-02-28T05:45:55;9;6;
69350;PMS7003;57106;51.446;-2.606;2024-02-28T05:48:20;5;4;
69350;PMS7003;57106;51.446;-2.606;2024-02-28T05:50:46;6;5;
69350;PMS7003;57106;51.446;-2.606;2024-02-28T05:53:11;6;5;
69350;PMS7003;57106;51.446;-2.606;2024-02-28T05:55:43;5;4;
69350;PMS7003;57106;51.446;-2.606;2024-02-28T05:58:03;6;6;
69350;PMS7003;57106;51.446;-2.606;2024-02-28T06:00:28;7;6;
69350;PMS7003;57106;51.446;-2.606;2024-02-28T06:02:54;6;6;
69350;PMS7003;57106;51.446;-2.606;2024-02-28T06:05:25;6;4;
69350;PMS7003;57106;51.446;-2.606;2024-02-28T06:07:45;7;5;
69350;PMS7003;57106;51.446;-2.606;2024-02-28T06:10:11;6;4;
69350;PMS7003;57106;51.446;-2.606;2024-02-28T06:15:12;6;5;
69350;PMS7003;57106;51.446;-2.606;2024-02-28T06:17:28;7;5;
69350;PMS7003;57106;51.446;-2.606;2024-02-28T06:22:25;7;5;
69350;PMS7003;57106;51.446;-2.606;2024-02-28T06:34:27;13;13;
69350;PMS7003;57106;51.446;-2.606;2024-02-28T07:22:58;7;7;
69350;PMS7003;57106;51.446;-2.606;2024-02-28T07:25:23;7;5;
69350;PMS7003;57106;51.446;-2.606;2024-02-28T07:27:49;9;8;
69350;PMS7003;57106;51.446;-2.606;2024-02-28T07:32:40;6;6;
69350;PMS7003;57106;51.446;-2.606;2024-02-28T07:35:06;8;7;
69350;PMS7003;57106;51.446;-2.606;2024-02-28T07:39:56;7;7;
69350;PMS7003;57106;51.446;-2.606;2024-02-28T07:42:22;6;6;
69350;PMS7003;57106;51.446;-2.606;2024-02-28T07:47:13;6;5;
69350;PMS7003;57106;51.446;-2.606;2024-02-28T07:49:37;10;7;
69350;PMS7003;57106;51.446;-2.606;2024-02-28T07:52:03;7;5;
69350;PMS7003;57106;51.446;-2.606;2024-02-28T07:54:29;8;4;
69350;PMS7003;57106;51.446;-2.606;2024-02-28T07:57:01;6;4;
69350;PMS7003;57106;51.446;-2.606;2024-02-28T07:59:21;7;6;
69350;PMS7003;57106;51.446;-2.606;2024-02-28T08:04:11;3;3;
69350;PMS7003;57106;51.446;-2.606;2024-02-28T08:06:37;5;5;
69350;PMS7003;57106;51.446;-2.606;2024-02-28T08:09:02;7;4;
69350;PMS7003;57106;51.446;-2.606;2024-02-28T08:11:28;4;4;
69350;PMS7003;57106;51.446;-2.606;2024-02-28T08:13:54;3;3;
69350;PMS7003;57106;51.446;-2.606;2024-02-28T08:16:19;6;6;
69350;PMS7003;57106;51.446;-2.606;2024-02-28T08:18:45;6;5;
69350;PMS7003;57106;51.446;-2.606;2024-02-28T08:21:10;8;5;
69350;PMS7003;57106;51.446;-2.606;2024-02-28T08:23:37;5;5;
69350;PMS7003;57106;51.446;-2.606;2024-02-28T08:26:02;8;7;
69350;PMS7003;57106;51.446;-2.606;2024-02-28T08:28:27;4;4;
69350;PMS7003;57106;51.446;-2.606;2024-02-28T08:30:53;4;3;
69350;PMS7003;57106;51.446;-2.606;2024-02-28T08:35:45;5;4;
69350;PMS7003;57106;51.446;-2.606;2024-02-28T08:38:10;5;4;
69350;PMS7003;57106;51.446;-2.606;2024-02-28T08:40:40;5;4;
69350;PMS7003;57106;51.446;-2.606;2024-02-28T08:43:01;5;5;
69350;PMS7003;57106;51.446;-2.606;2024-02-28T08:45:26;4;3;
69350;PMS7003;57106;51.446;-2.606;2024-02-28T08:47:52;3;3;
69350;PMS7003;57106;51.446;-2.606;2024-02-28T08:50:23;6;5;
69350;PMS7003;57106;51.446;-2.606;2024-02-28T08:52:49;5;4;
69350;PMS7003;57106;51.446;-2.606;2024-02-28T08:55:09;7;4;
69350;PMS7003;57106;51.446;-2.606;2024-02-28T08:57:35;6;5;
69350;PMS7003;57106;51.446;-2.606;2024-02-28T09:00:03;4;4;
69350;PMS7003;57106;51.446;-2.606;2024-02-28T09:02:26;5;5;
69350;PMS7003;57106;51.446;-2.606;2024-02-28T09:04:51;5;5;
69350;PMS7003;57106;51.446;-2.606;2024-02-28T09:07:17;6;4;
69350;PMS7003;57106;51.446;-2.606;2024-02-28T09:09:43;10;5;
69350;PMS7003;57106;51.446;-2.606;2024-02-28T09:12:08;5;5;
69350;PMS7003;57106;51.446;-2.606;2024-02-28T09:14:39;5;4;
69350;PMS7003;57106;51.446;-2.606;2024-02-28T09:16:59;3;3;
69350;PMS7003;57106;51.446;-2.606;2024-02-28T09:19:26;6;5;
69350;PMS7003;57106;51.446;-2.606;2024-02-28T10:08:06;6;3;
69350;PMS7003;57106;51.446;-2.606;2024-02-28T10:10:22;6;5;
69350;PMS7003;57106;51.446;-2.606;2024-02-28T12:31:05;2;2;
69350;PMS7003;57106;51.446;-2.606;2024-02-28T12:33:29;2;2;
69350;PMS7003;57106;51.446;-2.606;2024-02-28T12:45:37;3;2;
69350;PMS7003;57106;51.446;-2.606;2024-02-28T12:55:19;1;0;
69350;PMS7003;57106;51.446;-2.606;2024-02-28T13:14:44;0;0;
69350;PMS7003;57106;51.446;-2.606;2024-02-28T13:17:08;0;0;
69350;PMS7003;57106;51.446;-2.606;2024-02-28T13:19:34;2;1;
69350;PMS7003;57106;51.446;-2.606;2024-02-28T13:24:31;0;0;
69350;PMS7003;57106;51.446;-2.606;2024-02-28T13:26:51;1;1;
69350;PMS7003;57106;51.446;-2.606;2024-02-28T13:29:16;2;1;
69350;PMS7003;57106;51.446;-2.606;2024-02-28T13:31:42;0;0;
69350;PMS7003;57106;51.446;-2.606;2024-02-28T13:34:11;1;1;
69350;PMS7003;57106;51.446;-2.606;2024-02-28T13:36:33;0;0;
69350;PMS7003;57106;51.446;-2.606;2024-02-28T13:38:58;0;0;
69350;PMS7003;57106;51.446;-2.606;2024-02-28T13:43:49;0;0;
69350;PMS7003;57106;51.446;-2.606;2024-02-28T13:48:40;0;0;
69350;PMS7003;57106;51.446;-2.606;2024-02-28T13:55:57;0;0;
69350;PMS7003;57106;51.446;-2.606;2024-02-28T13:58:22;1;0;
69350;PMS7003;57106;51.446;-2.606;2024-02-28T14:00:48;0;0;
69350;PMS7003;57106;51.446;-2.606;2024-02-28T14:03:13;2;2;
69350;PMS7003;57106;51.446;-2.606;2024-02-28T14:05:39;0;0;
69350;PMS7003;57106;51.446;-2.606;2024-02-28T14:08:05;1;1;
69350;PMS7003;57106;51.446;-2.606;2024-02-28T14:10:30;5;5;
69350;PMS7003;57106;51.446;-2.606;2024-02-28T14:12:55;1;1;
69350;PMS7003;57106;51.446;-2.606;2024-02-28T14:15:21;0;0;
69350;PMS7003;57106;51.446;-2.606;2024-02-28T14:49:21;1;1;
69350;PMS7003;57106;51.446;-2.606;2024-02-28T14:51:43;1;1;
69350;PMS7003;57106;51.446;-2.606;2024-02-28T14:54:12;1;1;
69350;PMS7003;57106;51.446;-2.606;2024-02-28T14:56:44;0;0;
69350;PMS7003;57106;51.446;-2.606;2024-02-28T15:13:34;1;1;
69350;PMS7003;57106;51.446;-2.606;2024-02-28T15:15:58;1;1;
69350;PMS7003;57106;51.446;-2.606;2024-02-28T15:20:49;1;1;
69350;PMS7003;57106;51.446;-2.606;2024-02-28T15:23:16;0;0;
69350;PMS7003;57106;51.446;-2.606;2024-02-28T15:25:47;0;0;
69350;PMS7003;57106;51.446;-2.606;2024-02-28T15:30:32;2;0;
69350;PMS7003;57106;51.446;-2.606;2024-02-28T15:37:50;1;1;
69350;PMS7003;57106;51.446;-2.606;2024-02-28T15:52:22;1;1;
69350;PMS7003;57106;51.446;-2.606;2024-02-28T15:54:46;1;1;
69350;PMS7003;57106;51.446;-2.606;2024-02-28T15:57:12;2;2;
69350;PMS7003;57106;51.446;-2.606;2024-02-28T15:59:38;0;0;
69350;PMS7003;57106;51.446;-2.606;2024-02-28T16:02:03;1;1;
69350;PMS7003;57106;51.446;-2.606;2024-02-28T16:04:29;2;2;
69350;PMS7003;57106;51.446;-2.606;2024-02-28T16:06:59;3;2;
69350;PMS7003;57106;51.446;-2.606;2024-02-28T16:09:19;2;2;
69350;PMS7003;57106;51.446;-2.606;2024-02-28T16:11:45;2;2;
69350;PMS7003;57106;51.446;-2.606;2024-02-28T16:14:10;2;2;
69350;PMS7003;57106;51.446;-2.606;2024-02-28T16:16:36;3;3;
69350;PMS7003;57106;51.446;-2.606;2024-02-28T16:19:01;4;4;
69350;PMS7003;57106;51.446;-2.606;2024-02-28T16:21:27;3;3;
69350;PMS7003;57106;51.446;-2.606;2024-02-28T16:23:52;3;2;
69350;PMS7003;57106;51.446;-2.606;2024-02-28T16:26:23;4;3;
69350;PMS7003;57106;51.446;-2.606;2024-02-28T16:28:43;4;4;
69350;PMS7003;57106;51.446;-2.606;2024-02-28T16:31:09;4;4;
69350;PMS7003;57106;51.446;-2.606;2024-02-28T16:33:34;3;3;
69350;PMS7003;57106;51.446;-2.606;2024-02-28T16:36:00;4;2;
69350;PMS7003;57106;51.446;-2.606;2024-02-28T16:38:25;3;3;
69350;PMS7003;57106;51.446;-2.606;2024-02-28T16:40:53;2;2;
69350;PMS7003;57106;51.446;-2.606;2024-02-28T16:43:16;2;2;
69350;PMS7003;57106;51.446;-2.606;2024-02-28T16:45:42;5;4;
69350;PMS7003;57106;51.446;-2.606;2024-02-28T16:48:07;2;2;
69350;PMS7003;57106;51.446;-2.606;2024-02-28T16:50:33;3;3;
69350;PMS7003;57106;51.446;-2.606;2024-02-28T16:52:59;3;3;
69350;PMS7003;57106;51.446;-2.606;2024-02-28T16:55:24;4;4;
69350;PMS7003;57106;51.446;-2.606;2024-02-28T16:57:49;3;3;
69350;PMS7003;57106;51.446;-2.606;2024-02-28T17:00:26;2;2;
69350;PMS7003;57106;51.446;-2.606;2024-02-28T17:07:32;2;2;
69350;PMS7003;57106;51.446;-2.606;2024-02-28T17:12:22;3;3;
69350;PMS7003;57106;51.446;-2.606;2024-02-28T17:14:58;2;2;
69350;PMS7003;57106;51.446;-2.606;2024-02-28T17:17:13;3;3;
69350;PMS7003;57106;51.446;-2.606;2024-02-28T17:19:40;4;2;
69350;PMS7003;57106;51.446;-2.606;2024-02-28T17:24:30;4;4;
69350;PMS7003;57106;51.446;-2.606;2024-02-28T17:29:21;3;2;
69350;PMS7003;57106;51.446;-2.606;2024-02-28T17:31:46;2;2;
69350;PMS7003;57106;51.446;-2.606;2024-02-28T17:34:11;3;3;
69350;PMS7003;57106;51.446;-2.606;2024-02-28T17:36:39;5;5;
69350;PMS7003;57106;51.446;-2.606;2024-02-28T17:39:02;9;7;
69350;PMS7003;57106;51.446;-2.606;2024-02-28T17:41:28;10;9;
69350;PMS7003;57106;51.446;-2.606;2024-02-28T17:43:55;5;5;
69350;PMS7003;57106;51.446;-2.606;2024-02-28T17:46:19;4;4;
69350;PMS7003;57106;51.446;-2.606;2024-02-28T17:48:45;7;7;
69350;PMS7003;57106;51.446;-2.606;2024-02-28T17:53:40;9;8;
69350;PMS7003;57106;51.446;-2.606;2024-02-28T17:56:01;7;7;
69350;PMS7003;57106;51.446;-2.606;2024-02-28T18:00:52;6;6;
69350;PMS7003;57106;51.446;-2.606;2024-02-28T18:03:19;4;3;
69350;PMS7003;57106;51.446;-2.606;2024-02-28T18:05:48;3;3;
69350;PMS7003;57106;51.446;-2.606;2024-02-28T18:08:09;4;4;
69350;PMS7003;57106;51.446;-2.606;2024-02-28T18:10:34;4;3;
69350;PMS7003;57106;51.446;-2.606;2024-02-28T18:13:01;3;3;
69350;PMS7003;57106;51.446;-2.606;2024-02-28T18:15:29;3;3;
69350;PMS7003;57106;51.446;-2.606;2024-02-28T18:17:51;4;4;
69350;PMS7003;57106;51.446;-2.606;2024-02-28T18:20:20;4;3;
69350;PMS7003;57106;51.446;-2.606;2024-02-28T18:22:47;10;8;
69350;PMS7003;57106;51.446;-2.606;2024-02-28T18:25:07;7;7;
69350;PMS7003;57106;51.446;-2.606;2024-02-28T18:27:33;7;7;
69350;PMS7003;57106;51.446;-2.606;2024-02-28T18:32:29;6;6;
69350;PMS7003;57106;51.446;-2.606;2024-02-28T18:34:51;5;5;
69350;PMS7003;57106;51.446;-2.606;2024-02-28T18:37:15;6;6;
69350;PMS7003;57106;51.446;-2.606;2024-02-28T18:39:40;5;4;
69350;PMS7003;57106;51.446;-2.606;2024-02-28T18:44:33;7;7;
69350;PMS7003;57106;51.446;-2.606;2024-02-28T18:46:57;4;4;
69350;PMS7003;57106;51.446;-2.606;2024-02-28T18:49:29;4;4;
69350;PMS7003;57106;51.446;-2.606;2024-02-28T18:51:48;3;3;
69350;PMS7003;57106;51.446;-2.606;2024-02-28T18:54:13;5;3;
69350;PMS7003;57106;51.446;-2.606;2024-02-28T18:56:39;3;3;
69350;PMS7003;57106;51.446;-2.606;2024-02-28T18:59:04;3;3;
69350;PMS7003;57106;51.446;-2.606;2024-02-28T19:01:30;4;3;
69350;PMS7003;57106;51.446;-2.606;2024-02-28T19:06:21;10;9;
69350;PMS7003;57106;51.446;-2.606;2024-02-28T19:08:46;9;9;
69350;PMS7003;57106;51.446;-2.606;2024-02-28T19:11:15;8;7;
69350;PMS7003;57106;51.446;-2.606;2024-02-28T19:13:37;7;7;
69350;PMS7003;57106;51.446;-2.606;2024-02-28T19:16:03;16;16;
69350;PMS7003;57106;51.446;-2.606;2024-02-28T19:23:24;6;6;
69350;PMS7003;57106;51.446;-2.606;2024-02-28T19:25:44;6;5;
69350;PMS7003;57106;51.446;-2.606;2024-02-28T19:28:10;4;4;
69350;PMS7003;57106;51.446;-2.606;2024-02-28T19:30:40;4;4;
69350;PMS7003;57106;51.446;-2.606;2024-02-28T19:33:02;5;4;
69350;PMS7003;57106;51.446;-2.606;2024-02-28T19:35:26;3;3;
69350;PMS7003;57106;51.446;-2.606;2024-02-28T19:37:57;4;3;
69350;PMS7003;57106;51.446;-2.606;2024-02-28T19:40:17;6;6;
69350;PMS7003;57106;51.446;-2.606;2024-02-28T19:42:43;3;3;
69350;PMS7003;57106;51.446;-2.606;2024-02-28T19:45:10;3;3;
69350;PMS7003;57106;51.446;-2.606;2024-02-28T19:47:44;4;4;
69350;PMS7003;57106;51.446;-2.606;2024-02-28T19:49:59;4;4;
69350;PMS7003;57106;51.446;-2.606;2024-02-28T19:52:25;4;4;
69350;PMS7003;57106;51.446;-2.606;2024-02-28T19:54:50;4;3;
69350;PMS7003;57106;51.446;-2.606;2024-02-28T19:57:17;3;3;
69350;PMS7003;57106;51.446;-2.606;2024-02-28T19:59:41;3;3;
69350;PMS7003;57106;51.446;-2.606;2024-02-28T20:02:07;2;2;
69350;PMS7003;57106;51.446;-2.606;2024-02-28T20:04:34;3;3;
69350;PMS7003;57106;51.446;-2.606;2024-02-28T20:06:58;3;3;
69350;PMS7003;57106;51.446;-2.606;2024-02-28T20:09:24;3;3;
69350;PMS7003;57106;51.446;-2.606;2024-02-28T20:11:50;2;2;
69350;PMS7003;57106;51.446;-2.606;2024-02-28T20:14:20;1;1;
69350;PMS7003;57106;51.446;-2.606;2024-02-28T20:16:40;1;1;
69350;PMS7003;57106;51.446;-2.606;2024-02-28T20:19:05;5;3;
69350;PMS7003;57106;51.446;-2.606;2024-02-28T20:21:31;3;3;
69350;PMS7003;57106;51.446;-2.606;2024-02-28T20:23:57;2;2;
69350;PMS7003;57106;51.446;-2.606;2024-02-28T20:26:22;3;3;
69350;PMS7003;57106;51.446;-2.606;2024-02-28T20:28:47;2;2;
69350;PMS7003;57106;51.446;-2.606;2024-02-28T20:31:13;2;2;
69350;PMS7003;57106;51.446;-2.606;2024-02-28T20:33:38;2;2;
69350;PMS7003;57106;51.446;-2.606;2024-02-28T20:38:29;5;4;
69350;PMS7003;57106;51.446;-2.606;2024-02-28T20:40:55;4;4;
69350;PMS7003;57106;51.446;-2.606;2024-02-28T20:43:20;3;3;
69350;PMS7003;57106;51.446;-2.606;2024-02-28T20:48:12;3;1;
69350;PMS7003;57106;51.446;-2.606;2024-02-28T20:50:37;2;2;
69350;PMS7003;57106;51.446;-2.606;2024-02-28T20:53:05;3;2;
69350;PMS7003;57106;51.446;-2.606;2024-02-28T20:55:28;2;2;
69350;PMS7003;57106;51.446;-2.606;2024-02-28T21:02:45;4;4;
69350;PMS7003;57106;51.446;-2.606;2024-02-28T21:12:27;8;6;
69350;PMS7003;57106;51.446;-2.606;2024-02-28T21:14:53;5;4;
69350;PMS7003;57106;51.446;-2.606;2024-02-28T21:17:22;3;3;
69350;PMS7003;57106;51.446;-2.606;2024-02-28T21:19:53;1;1;
69350;PMS7003;57106;51.446;-2.606;2024-02-28T21:22:13;2;2;
69350;PMS7003;57106;51.446;-2.606;2024-02-28T21:24:34;1;1;
69350;PMS7003;57106;51.446;-2.606;2024-02-28T21:27:00;1;1;
69350;PMS7003;57106;51.446;-2.606;2024-02-28T21:29:25;0;0;
69350;PMS7003;57106;51.446;-2.606;2024-02-28T21:31:50;3;3;
69350;PMS7003;57106;51.446;-2.606;2024-02-28T21:34:26;3;2;
69350;PMS7003;57106;51.446;-2.606;2024-02-28T21:36:43;1;1;
69350;PMS7003;57106;51.446;-2.606;2024-02-28T21:39:08;5;5;
69350;PMS7003;57106;51.446;-2.606;2024-02-28T21:41:33;2;1;
69350;PMS7003;57106;51.446;-2.606;2024-02-28T21:43:58;1;1;
69350;PMS7003;57106;51.446;-2.606;2024-02-28T21:46:24;1;1;
69350;PMS7003;57106;51.446;-2.606;2024-02-28T21:53:41;0;0;
69350;PMS7003;57106;51.446;-2.606;2024-02-28T21:56:10;0;0;
69350;PMS7003;57106;51.446;-2.606;2024-02-28T22:22:49;0;0;
69350;PMS7003;57106;51.446;-2.606;2024-02-28T22:44:36;0;0;
69350;PMS7003;57106;51.446;-2.606;2024-02-28T22:49:27;1;0;
69350;PMS7003;57106;51.446;-2.606;2024-02-28T22:56:44;0;0;
69350;PMS7003;57106;51.446;-2.606;2024-02-28T22:59:11;0;0;
69350;PMS7003;57106;51.446;-2.606;2024-02-28T23:13:43;1;1;
69350;PMS7003;57106;51.446;-2.606;2024-02-28T23:16:08;1;1;
69350;PMS7003;57106;51.446;-2.606;2024-02-28T23:18:34;1;1;
69350;PMS7003;57106;51.446;-2.606;2024-02-28T23:23:25;1;1;
69350;PMS7003;57106;51.446;-2.606;2024-02-28T23:25:50;3;0;
69350;PMS7003;57106;51.446;-2.606;2024-02-28T23:28:15;0;0;
69350;PMS7003;57106;51.446;-2.606;2024-02-28T23:33:14;1;1;
69350;PMS7003;57106;51.446;-2.606;2024-02-28T23:35:32;1;1;
69350;PMS7003;57106;51.446;-2.606;2024-02-28T23:37:58;1;1;
69350;PMS7003;57106;51.446;-2.606;2024-02-28T23:40:23;0;0;
69350;PMS7003;57106;51.446;-2.606;2024-02-28T23:42:55;0;0;
69350;PMS7003;57106;51.446;-2.606;2024-02-28T23:45:15;0;0;
69350;PMS7003;57106;51.446;-2.606;2024-02-28T23:47:40;1;1;
69350;PMS7003;57106;51.446;-2.606;2024-02-28T23:50:06;0;0;
69350;PMS7003;57106;51.446;-2.606;2024-02-28T23:52:30;0;0;
69350;PMS7003;57106;51.446;-2.606;2024-02-28T23:54:57;0;0;
69350;PMS7003;57106;51.446;-2.606;2024-02-28T23:57:22;1;1;
69350;PMS7003;57106;51.446;-2.606;2024-02-28T23:59:48;0;0;
